Time;durP1;ratioP1;P1;durP2;ratioP2;P2;SDS_P1;SDS_P2;PMS_P1;PMS_P2;Temp;Humidity;BMP_temperature;BMP_pressure;BME280_temperature;BME280_humidity;BME280_pressure;Samples;Min_cycle;Max_cycle;Signal;HPM_P1;HPM_P2
2024/01/21 00:01:18;;;;;;;9.65;4.65;;;;;;;-0.74;62.72;102009.91;5025640;28;20042;-84
2024/01/21 00:03:46;;;;;;;10.35;4.88;;;;;;;-0.81;62.67;102016.34;5039290;28;20412;-84
2024/01/21 00:06:13;;;;;;;6.45;3.95;;;;;;;-0.87;62.88;102019.47;5043501;28;20056;-84
2024/01/21 00:08:40;;;;;;;9.32;4.90;;;;;;;-0.81;62.74;102018.06;5039546;28;20144;-84
2024/01/21 00:11:09;;;;;;;9.63;5.13;;;;;;;-0.76;62.61;102009.81;5045961;28;21082;-84
2024/01/21 00:13:36;;;;;;;9.65;5.13;;;;;;;-0.77;62.09;102005.47;5028922;28;20444;-84
2024/01/21 00:16:03;;;;;;;8.68;4.82;;;;;;;-0.71;62.40;102004.94;5047415;28;20073;-84
2024/01/21 00:18:29;;;;;;;8.73;4.22;;;;;;;-0.65;62.03;101996.69;5048327;28;20045;-84
2024/01/21 00:20:56;;;;;;;8.80;3.80;;;;;;;-0.62;61.04;101992.63;5068213;28;20111;-82
2024/01/21 00:23:23;;;;;;;5.88;3.53;;;;;;;-0.54;60.88;101998.22;5034242;28;20060;-83
2024/01/21 00:25:52;;;;;;;5.63;3.67;;;;;;;-0.49;60.58;101985.63;5060968;28;20457;-84
2024/01/21 00:28:22;;;;;;;7.22;4.40;;;;;;;-0.52;59.69;101976.06;5030098;28;20041;-83
2024/01/21 00:30:52;;;;;;;8.65;4.00;;;;;;;-0.46;59.86;101980.66;5047111;28;20099;-83
2024/01/21 00:33:20;;;;;;;4.10;3.55;;;;;;;-0.48;59.28;101974.50;5047295;28;20060;-84
2024/01/21 00:35:54;;;;;;;10.15;4.55;;;;;;;-0.49;59.96;101960.78;5063786;28;20086;-85
2024/01/21 00:38:26;;;;;;;7.05;3.80;;;;;;;-0.55;59.58;101960.41;5049832;28;20585;-84
2024/01/21 00:40:53;;;;;;;8.75;3.47;;;;;;;-0.58;58.76;101961.13;5048599;28;20037;-84
2024/01/21 00:43:23;;;;;;;10.45;4.57;;;;;;;-0.60;58.78;101961.84;5017757;28;20474;-85
2024/01/21 00:45:53;;;;;;;6.85;4.07;;;;;;;-0.60;58.34;101959.25;5030748;28;20140;-83
2024/01/21 00:48:22;;;;;;;5.05;3.55;;;;;;;-0.58;58.43;101947.41;5058582;28;20063;-84
2024/01/21 00:50:55;;;;;;;7.72;3.58;;;;;;;-0.63;58.10;101954.84;5049771;28;20052;-84
2024/01/21 00:53:21;;;;;;;5.35;2.78;;;;;;;-0.57;57.47;101952.63;5058649;28;20522;-83
2024/01/21 00:55:48;;;;;;;9.88;3.55;;;;;;;-0.56;58.01;101943.22;5044113;28;20041;-83
2024/01/21 00:58:14;;;;;;;6.20;2.92;;;;;;;-0.58;58.24;101942.25;5046935;28;20092;-83
2024/01/21 01:00:41;;;;;;;5.03;3.40;;;;;;;-0.68;58.70;101934.00;5046474;28;20060;-83
2024/01/21 01:03:08;;;;;;;6.57;3.63;;;;;;;-0.72;59.16;101937.22;5030418;28;20049;-83
2024/01/21 01:05:34;;;;;;;7.25;3.95;;;;;;;-0.75;59.93;101937.00;5031658;28;20047;-83
2024/01/21 01:08:08;;;;;;;6.68;3.83;;;;;;;-0.82;59.84;101932.34;5046766;28;20463;-83
2024/01/21 01:10:37;;;;;;;4.75;3.22;;;;;;;-0.85;60.53;101920.19;5024942;28;20164;-81
2024/01/21 01:13:04;;;;;;;7.22;4.25;;;;;;;-0.88;60.75;101917.41;5044544;28;20123;-84
2024/01/21 01:15:30;;;;;;;7.68;3.97;;;;;;;-0.94;61.14;101911.94;5037083;28;20056;-83
2024/01/21 01:17:57;;;;;;;8.52;5.47;;;;;;;-0.88;61.21;101913.97;5045223;28;20126;-84
2024/01/21 01:20:26;;;;;;;6.57;4.32;;;;;;;-0.90;60.97;101915.56;5032897;28;20145;-83
2024/01/21 01:22:58;;;;;;;9.77;4.78;;;;;;;-0.88;61.16;101913.97;5020497;28;20046;-84
2024/01/21 01:25:30;;;;;;;10.02;4.25;;;;;;;-0.96;61.06;101921.22;5053815;28;20357;-83
2024/01/21 01:27:56;;;;;;;5.75;3.92;;;;;;;-1.00;61.50;101914.16;5047276;28;20033;-82
2024/01/21 01:30:23;;;;;;;9.23;4.18;;;;;;;-0.98;62.26;101914.22;5029982;28;20048;-85
2024/01/21 01:32:50;;;;;;;6.72;4.35;;;;;;;-1.00;61.82;101909.88;5012322;28;20050;-82
2024/01/21 01:35:19;;;;;;;4.70;3.60;;;;;;;-1.06;62.46;101909.50;5046472;28;20043;-82
2024/01/21 01:37:50;;;;;;;5.88;3.95;;;;;;;-1.07;62.77;101904.28;5028952;28;20489;-83
2024/01/21 01:40:20;;;;;;;8.68;4.35;;;;;;;-1.14;62.44;101908.19;5030933;28;20470;-84
2024/01/21 01:42:57;;;;;;;7.38;3.65;;;;;;;-1.14;62.81;101909.88;5048190;28;20566;-84
2024/01/21 01:45:24;;;;;;;6.22;3.85;;;;;;;-1.11;62.92;101904.91;5031569;28;20137;-83
2024/01/21 01:47:52;;;;;;;5.90;3.58;;;;;;;-1.07;62.69;101894.00;5046814;28;20063;-84
2024/01/21 01:50:22;;;;;;;5.25;3.55;;;;;;;-1.08;62.23;101888.00;5060385;28;20091;-83
2024/01/21 01:52:50;;;;;;;9.30;3.90;;;;;;;-1.09;62.47;101878.50;5041943;28;20087;-83
2024/01/21 01:55:18;;;;;;;5.57;3.13;;;;;;;-1.05;62.31;101875.31;5014843;28;20045;-84
2024/01/21 01:57:48;;;;;;;7.53;3.95;;;;;;;-1.13;62.13;101873.09;5046937;28;20067;-85
2024/01/21 02:00:15;;;;;;;4.85;3.15;;;;;;;-1.10;62.23;101878.41;5042865;28;20584;-84
2024/01/21 02:02:44;;;;;;;7.57;4.25;;;;;;;-1.17;62.26;101879.75;5059306;28;20064;-82
2024/01/21 02:05:11;;;;;;;6.50;3.92;;;;;;;-1.11;62.20;101874.94;5021894;28;20353;-83
2024/01/21 02:07:40;;;;;;;5.68;3.28;;;;;;;-1.09;62.14;101875.94;5042497;28;20048;-83
2024/01/21 02:10:07;;;;;;;5.65;3.28;;;;;;;-1.11;61.99;101879.22;5040884;28;20057;-83
2024/01/21 02:12:34;;;;;;;7.40;3.28;;;;;;;-1.10;61.49;101874.16;5032905;28;20064;-82
2024/01/21 02:15:02;;;;;;;4.57;2.85;;;;;;;-1.09;61.12;101862.22;5031358;28;20059;-84
2024/01/21 02:17:29;;;;;;;5.20;3.03;;;;;;;-1.08;60.48;101854.59;5031468;28;20476;-84
2024/01/21 02:19:58;;;;;;;3.80;3.35;;;;;;;-1.07;60.03;101846.09;5033800;28;20141;-82
2024/01/21 02:22:31;;;;;;;7.43;3.22;;;;;;;-1.05;59.28;101847.03;5045307;28;20470;-82
2024/01/21 02:24:58;;;;;;;8.68;4.13;;;;;;;-1.02;58.93;101848.91;5053258;28;20042;-82
2024/01/21 02:27:25;;;;;;;9.57;3.42;;;;;;;-0.97;58.80;101846.59;5038436;28;20044;-83
2024/01/21 02:29:53;;;;;;;5.60;2.92;;;;;;;-0.95;58.79;101851.03;5026616;28;20050;-84
2024/01/21 02:32:23;;;;;;;5.95;2.70;;;;;;;-0.93;58.84;101849.44;5046340;28;20045;-82
2024/01/21 02:34:54;;;;;;;5.05;2.85;;;;;;;-0.95;58.84;101840.75;5023578;28;20052;-82
2024/01/21 02:37:20;;;;;;;4.32;2.78;;;;;;;-0.99;59.12;101836.25;5046186;28;20121;-81
2024/01/21 02:39:55;;;;;;;4.10;3.20;;;;;;;-0.98;59.35;101838.00;5043717;28;20053;-83
2024/01/21 02:42:31;;;;;;;;;;;;;;;-1.05;59.38;101834.19;5030482;28;20045;-82
2024/01/21 02:45:02;;;;;;;7.00;2.65;;;;;;;-1.03;59.36;101835.19;5021265;28;19955;-82
2024/01/21 02:47:29;;;;;;;4.95;2.63;;;;;;;-1.06;59.30;101839.25;5020990;28;20037;-83
2024/01/21 02:49:58;;;;;;;3.08;1.98;;;;;;;-1.09;58.93;101828.81;5044709;28;20076;-84
2024/01/21 02:52:24;;;;;;;6.03;3.35;;;;;;;-1.01;59.34;101832.69;5027393;28;20045;-84
2024/01/21 02:54:51;;;;;;;6.50;3.05;;;;;;;-1.01;59.36;101828.44;5028287;28;20302;-84
2024/01/21 02:57:17;;;;;;;6.55;3.17;;;;;;;-0.99;59.14;101820.81;5025662;28;20053;-84
2024/01/21 02:59:46;;;;;;;4.75;3.47;;;;;;;-0.96;59.12;101818.41;5047070;28;20053;-84
2024/01/21 03:02:15;;;;;;;4.30;3.20;;;;;;;-0.96;59.86;101820.13;5039612;28;20041;-82
2024/01/21 03:04:42;;;;;;;5.13;3.08;;;;;;;-0.98;59.03;101806.28;5027671;28;20057;-84
2024/01/21 03:07:11;;;;;;;5.18;3.33;;;;;;;-0.97;59.40;101800.34;5040984;28;20123;-84
2024/01/21 03:09:38;;;;;;;5.18;2.58;;;;;;;-1.00;59.87;101795.91;5029804;28;20037;-84
2024/01/21 03:12:05;;;;;;;5.80;3.63;;;;;;;-1.05;60.27;101795.63;5035337;28;20508;-84
2024/01/21 03:14:38;;;;;;;3.90;2.92;;;;;;;-1.03;59.56;101799.19;5025167;28;20084;-82
2024/01/21 03:17:07;;;;;;;8.00;3.65;;;;;;;-1.12;59.45;101788.41;5025174;28;20061;-84
2024/01/21 03:19:37;;;;;;;5.15;3.30;;;;;;;-1.08;59.95;101786.88;5051677;28;20566;-84
2024/01/21 03:22:04;;;;;;;3.38;3.05;;;;;;;-1.17;60.09;101767.56;5032944;28;20052;-83
2024/01/21 03:24:32;;;;;;;7.20;2.85;;;;;;;-1.29;60.11;101765.97;5027192;28;20047;-81
2024/01/21 03:26:58;;;;;;;3.70;2.90;;;;;;;-1.26;59.95;101763.59;5027929;28;20079;-83
2024/01/21 03:29:28;;;;;;;4.93;3.20;;;;;;;-1.24;60.51;101767.13;5044352;28;20242;-81
2024/01/21 03:31:55;;;;;;;2.95;2.63;;;;;;;-1.25;60.42;101767.91;5041764;28;20051;-84
2024/01/21 03:34:25;;;;;;;3.65;2.70;;;;;;;-1.25;60.07;101761.13;5016282;28;20056;-82
2024/01/21 03:36:52;;;;;;;5.18;2.92;;;;;;;-1.24;60.10;101759.41;5042113;28;20048;-83
2024/01/21 03:39:19;;;;;;;4.30;2.97;;;;;;;-1.17;59.97;101753.84;5028925;28;21172;-84
2024/01/21 03:41:47;;;;;;;2.85;2.63;;;;;;;-1.19;59.79;101748.63;5043080;28;20045;-82
2024/01/21 03:44:17;;;;;;;8.02;3.22;;;;;;;-1.18;59.53;101740.09;5043944;28;20057;-83
2024/01/21 03:46:44;;;;;;;4.75;2.83;;;;;;;-1.16;59.46;101742.78;5042754;28;20547;-83
2024/01/21 03:49:16;;;;;;;6.95;3.17;;;;;;;-1.15;59.31;101741.09;5026779;28;20111;-83
2024/01/21 03:51:50;;;;;;;7.03;3.83;;;;;;;-1.26;59.52;101738.78;5042504;28;20048;-84
2024/01/21 03:54:19;;;;;;;6.05;2.80;;;;;;;-1.26;59.43;101731.09;5024326;28;20192;-84
2024/01/21 03:56:48;;;;;;;3.95;3.60;;;;;;;-1.25;59.23;101724.25;5023028;28;20049;-83
2024/01/21 03:59:15;;;;;;;9.10;3.95;;;;;;;-1.29;58.59;101712.94;5042757;28;20046;-84
2024/01/21 04:01:49;;;;;;;4.55;3.30;;;;;;;-1.27;58.79;101721.59;5028432;28;20049;-83
2024/01/21 04:04:16;;;;;;;;;;;;;;;-1.26;58.51;101707.97;5034064;28;20504;-83
2024/01/21 04:06:44;;;;;;;3.13;2.75;;;;;;;-1.25;58.49;101709.75;5029817;28;20016;-82
2024/01/21 04:09:12;;;;;;;5.55;3.42;;;;;;;-1.27;58.06;101713.03;5040882;28;20041;-84
2024/01/21 04:11:41;;;;;;;6.30;2.95;;;;;;;-1.20;58.72;101705.75;5047757;28;20149;-82
2024/01/21 04:14:07;;;;;;;3.97;2.85;;;;;;;-1.23;58.08;101691.84;5054183;28;20065;-84
2024/01/21 04:16:34;;;;;;;5.10;3.08;;;;;;;-1.19;58.14;101686.06;5059470;28;20045;-82
2024/01/21 04:19:01;;;;;;;5.00;3.17;;;;;;;-1.19;57.94;101678.34;5030717;28;20507;-81
2024/01/21 04:21:27;;;;;;;9.15;3.55;;;;;;;-1.22;58.00;101671.34;5036294;28;20074;-84
2024/01/21 04:23:54;;;;;;;5.50;3.85;;;;;;;-1.19;57.89;101675.78;5040076;28;20049;-83
2024/01/21 04:26:21;;;;;;;4.57;2.78;;;;;;;-1.15;58.19;101664.00;5040922;28;20114;-83
2024/01/21 04:28:51;;;;;;;3.47;2.67;;;;;;;-1.13;58.08;101658.13;5043129;28;20056;-83
2024/01/21 04:31:17;;;;;;;6.72;4.30;;;;;;;-1.15;57.58;101654.59;5024644;28;20045;-83
2024/01/21 04:33:46;;;;;;;7.55;3.28;;;;;;;-1.18;57.56;101663.00;5043180;28;20053;-83
2024/01/21 04:36:18;;;;;;;4.43;2.63;;;;;;;-1.14;57.22;101658.94;5038399;28;20124;-84
2024/01/21 04:38:49;;;;;;;2.90;2.42;;;;;;;-1.16;57.14;101673.41;5041907;28;20404;-83
2024/01/21 04:41:18;;;;;;;4.43;2.45;;;;;;;-1.12;56.57;101661.59;5028044;28;20053;-81
2024/01/21 04:43:47;;;;;;;9.00;3.55;;;;;;;-1.15;57.04;101659.72;5021661;28;20537;-81
2024/01/21 04:46:13;;;;;;;4.38;3.08;;;;;;;-1.13;57.23;101649.53;5025163;28;20059;-84
2024/01/21 04:48:40;;;;;;;4.70;3.03;;;;;;;-1.13;57.19;101649.53;5044736;28;20048;-83
2024/01/21 04:51:11;;;;;;;7.47;3.22;;;;;;;-1.13;57.04;101646.97;5044543;28;20129;-82
2024/01/21 04:53:38;;;;;;;5.60;3.90;;;;;;;-1.12;57.19;101644.50;5038185;28;20043;-83
2024/01/21 04:56:05;;;;;;;6.68;3.47;;;;;;;-1.11;57.28;101633.41;5044713;28;20041;-85
2024/01/21 04:58:32;;;;;;;3.47;3.00;;;;;;;-1.14;57.15;101630.66;5019009;28;20044;-84
2024/01/21 05:00:59;;;;;;;6.35;3.55;;;;;;;-1.08;57.30;101624.97;5044830;28;20057;-83
2024/01/21 05:03:26;;;;;;;6.88;4.25;;;;;;;-1.10;56.85;101618.88;5045067;28;20047;-84
2024/01/21 05:05:53;;;;;;;4.20;3.00;;;;;;;-1.09;57.20;101621.53;5046273;28;20041;-82
2024/01/21 05:08:27;;;;;;;7.90;2.92;;;;;;;-1.06;57.11;101616.53;5030060;28;20049;-82
2024/01/21 05:10:54;;;;;;;3.85;3.03;;;;;;;-1.05;56.81;101612.31;5024131;28;20051;-84
2024/01/21 05:13:20;;;;;;;5.35;2.85;;;;;;;-1.05;56.95;101615.75;5046180;28;20068;-84
2024/01/21 05:15:53;;;;;;;4.90;3.15;;;;;;;-0.99;56.71;101620.34;5028563;28;20045;-83
2024/01/21 05:18:23;;;;;;;4.97;2.97;;;;;;;-0.95;56.40;101618.81;5032623;28;20045;-83
2024/01/21 05:20:50;;;;;;;7.53;3.22;;;;;;;-0.94;55.43;101618.00;5029808;28;20051;-83
2024/01/21 05:23:16;;;;;;;4.43;3.00;;;;;;;-0.86;55.40;101612.47;5015608;28;20061;-84
2024/01/21 05:25:45;;;;;;;5.25;2.97;;;;;;;-0.78;55.30;101606.84;5048993;28;20067;-83
2024/01/21 05:28:11;;;;;;;6.18;3.40;;;;;;;-0.73;54.20;101595.13;5034226;28;20802;-83
2024/01/21 05:30:38;;;;;;;6.10;3.22;;;;;;;-0.67;53.16;101596.31;5055941;28;20045;-83
2024/01/21 05:33:07;;;;;;;4.50;2.63;;;;;;;-0.61;53.45;101585.50;5024295;28;20057;-83
2024/01/21 05:35:34;;;;;;;6.30;3.33;;;;;;;-0.59;53.40;101583.84;5044010;28;20511;-84
2024/01/21 05:38:01;;;;;;;9.95;3.42;;;;;;;-0.53;53.22;101588.44;5032998;28;20053;-83
2024/01/21 05:40:30;;;;;;;4.78;4.03;;;;;;;-0.48;52.81;101568.09;5044183;28;20566;-84
2024/01/21 05:42:57;;;;;;;5.10;3.17;;;;;;;-0.47;52.26;101562.16;5031307;28;20059;-82
2024/01/21 05:45:24;;;;;;;3.75;2.75;;;;;;;-0.43;52.68;101557.25;5046394;28;20045;-82
2024/01/21 05:47:51;;;;;;;4.43;2.53;;;;;;;-0.38;51.85;101557.47;5041025;28;20076;-81
2024/01/21 05:50:17;;;;;;;4.70;2.90;;;;;;;-0.34;51.23;101556.81;5030978;28;20053;-84
2024/01/21 05:52:46;;;;;;;3.50;3.05;;;;;;;-0.27;51.68;101558.03;5044860;28;20049;-82
2024/01/21 05:55:13;;;;;;;3.83;1.95;;;;;;;-0.28;51.32;101551.97;5016595;28;20053;-83
2024/01/21 05:57:41;;;;;;;5.80;3.55;;;;;;;-0.21;51.38;101546.34;5042299;28;20473;-83
2024/01/21 06:00:08;;;;;;;3.15;2.47;;;;;;;-0.20;51.37;101563.53;5031142;28;20075;-83
2024/01/21 06:02:37;;;;;;;6.30;3.70;;;;;;;-0.20;51.09;101547.22;5031868;28;20128;-83
2024/01/21 06:05:07;;;;;;;4.28;2.95;;;;;;;-0.21;51.13;101546.34;5036549;28;20057;-84
2024/01/21 06:07:34;;;;;;;4.07;2.58;;;;;;;-0.24;51.35;101535.00;5044977;28;20469;-82
2024/01/21 06:10:01;;;;;;;8.50;3.58;;;;;;;-0.26;52.04;101534.94;5035361;28;20037;-83
2024/01/21 06:12:28;;;;;;;4.57;2.90;;;;;;;-0.25;51.73;101528.09;5043200;28;20097;-84
2024/01/21 06:14:56;;;;;;;3.40;2.75;;;;;;;-0.26;52.49;101521.16;5026334;28;20060;-82
2024/01/21 06:17:23;;;;;;;4.85;3.53;;;;;;;-0.22;52.23;101511.13;5029800;28;20054;-82
2024/01/21 06:19:51;;;;;;;8.48;3.35;;;;;;;-0.23;52.15;101503.31;5055530;28;20088;-85
2024/01/21 06:22:18;;;;;;;7.85;4.38;;;;;;;-0.20;51.69;101509.47;5002351;28;20053;-85
2024/01/21 06:24:48;;;;;;;6.28;2.90;;;;;;;-0.17;51.95;101509.66;5043697;28;20116;-82
2024/01/21 06:27:16;;;;;;;4.63;2.97;;;;;;;-0.13;51.88;101504.63;5062742;28;20162;-85
2024/01/21 06:29:46;;;;;;;4.80;2.88;;;;;;;-0.12;51.59;101508.97;5026681;28;20049;-83
2024/01/21 06:32:13;;;;;;;6.28;3.08;;;;;;;-0.12;51.72;101498.69;5012212;28;20041;-84
2024/01/21 06:34:39;;;;;;;6.95;3.65;;;;;;;-0.09;50.72;101497.16;5035487;28;20114;-82
2024/01/21 06:37:07;;;;;;;4.50;3.10;;;;;;;-0.04;50.78;101500.84;5041678;28;20124;-81
2024/01/21 06:39:33;;;;;;;4.03;2.20;;;;;;;-0.03;50.30;101496.56;5027908;28;20595;-84
2024/01/21 06:42:02;;;;;;;4.72;3.03;;;;;;;0.00;50.69;101491.56;5049523;28;20052;-83
2024/01/21 06:44:29;;;;;;;4.53;3.65;;;;;;;0.01;50.43;101493.31;5041820;28;20133;-84
2024/01/21 06:46:58;;;;;;;5.32;3.33;;;;;;;0.02;50.60;101483.91;5033347;28;20056;-83
2024/01/21 06:49:27;;;;;;;3.83;3.40;;;;;;;-0.01;50.45;101477.81;5029075;28;20098;-82
2024/01/21 06:51:54;;;;;;;4.50;2.80;;;;;;;0.03;50.30;101468.53;5044614;28;20130;-83
2024/01/21 06:54:22;;;;;;;8.60;2.85;;;;;;;0.07;49.86;101467.00;5059056;28;20072;-84
2024/01/21 06:56:51;;;;;;;4.95;2.60;;;;;;;0.12;50.02;101473.25;5033833;28;20042;-84
2024/01/21 06:59:17;;;;;;;2.65;2.40;;;;;;;0.17;49.21;101464.03;5038717;28;20055;-82
2024/01/21 07:01:44;;;;;;;4.43;2.60;;;;;;;0.19;48.96;101449.53;5028302;28;20045;-81
2024/01/21 07:04:11;;;;;;;5.88;3.20;;;;;;;0.23;48.96;101442.84;5009481;28;20132;-84
2024/01/21 07:06:38;;;;;;;4.78;3.10;;;;;;;0.31;48.26;101444.97;5026143;28;20063;-81
2024/01/21 07:09:08;;;;;;;3.75;3.33;;;;;;;0.33;48.19;101440.75;5046939;28;20118;-82
2024/01/21 07:11:35;;;;;;;6.80;2.92;;;;;;;0.39;48.15;101449.56;5025992;28;20776;-83
2024/01/21 07:14:07;;;;;;;3.70;2.65;;;;;;;0.41;47.86;101448.81;5041282;28;20055;-82
2024/01/21 07:16:34;;;;;;;5.55;2.22;;;;;;;0.47;47.15;101435.31;5042036;28;20041;-83
2024/01/21 07:19:01;;;;;;;6.65;3.55;;;;;;;0.50;47.39;101445.78;5039767;28;20037;-83
2024/01/21 07:21:28;;;;;;;5.70;3.08;;;;;;;0.54;47.57;101447.69;5045872;28;20057;-84
2024/01/21 07:23:57;;;;;;;4.30;2.80;;;;;;;0.55;47.34;101453.69;5010192;28;20117;-82
2024/01/21 07:26:23;;;;;;;3.42;2.75;;;;;;;0.57;47.05;101449.50;5027616;28;20128;-83
2024/01/21 07:28:50;;;;;;;8.52;3.00;;;;;;;0.60;46.37;101450.53;5040244;28;20485;-83
2024/01/21 07:31:17;;;;;;;4.28;3.33;;;;;;;0.65;46.30;101445.56;5022599;28;20049;-85
2024/01/21 07:33:43;;;;;;;3.78;2.35;;;;;;;0.70;46.15;101456.09;5049103;28;20128;-81
2024/01/21 07:36:10;;;;;;;3.90;2.65;;;;;;;0.70;46.46;101446.66;5025942;28;20135;-84
2024/01/21 07:38:37;;;;;;;4.13;2.55;;;;;;;0.71;46.07;101444.97;5041969;28;20051;-83
2024/01/21 07:41:04;;;;;;;4.30;2.20;;;;;;;0.72;46.05;101452.78;5030271;28;20645;-81
2024/01/21 07:43:31;;;;;;;3.33;2.72;;;;;;;0.74;46.72;101438.25;5021439;28;20114;-84
2024/01/21 07:45:57;;;;;;;2.58;2.33;;;;;;;0.76;45.91;101435.75;5022706;28;20045;-82
2024/01/21 07:48:24;;;;;;;3.58;2.53;;;;;;;0.77;46.48;101442.66;5037611;28;20420;-84
2024/01/21 07:50:52;;;;;;;3.85;2.85;;;;;;;0.75;46.63;101437.44;5043854;28;20485;-83
2024/01/21 07:53:20;;;;;;;5.25;2.92;;;;;;;0.72;46.93;101429.56;5006899;28;20056;-81
2024/01/21 07:55:48;;;;;;;2.58;2.38;;;;;;;0.75;47.38;101428.84;5054799;28;20040;-83
2024/01/21 07:58:15;;;;;;;4.57;3.33;;;;;;;0.70;47.91;101430.31;5061276;28;20101;-83
2024/01/21 08:00:43;;;;;;;3.67;3.38;;;;;;;0.64;47.80;101425.78;5031520;28;20072;-84
2024/01/21 08:03:11;;;;;;;5.10;2.75;;;;;;;0.65;48.01;101425.84;5038733;28;20519;-83
2024/01/21 08:05:37;;;;;;;6.70;3.05;;;;;;;0.68;48.31;101411.31;5028585;28;20056;-84
2024/01/21 08:08:05;;;;;;;5.05;3.47;;;;;;;0.62;48.51;101404.22;5013024;28;20696;-83
2024/01/21 08:10:32;;;;;;;6.82;3.08;;;;;;;0.60;48.78;101416.13;5042499;28;20114;-83
2024/01/21 08:12:59;;;;;;;4.57;3.42;;;;;;;0.63;48.69;101414.59;5041466;28;20111;-84
2024/01/21 08:15:27;;;;;;;4.18;3.53;;;;;;;0.61;48.94;101408.50;5026934;28;20044;-84
2024/01/21 08:17:54;;;;;;;6.97;3.40;;;;;;;0.61;49.24;101398.19;5041721;28;20052;-84
2024/01/21 08:20:21;;;;;;;4.22;2.72;;;;;;;0.63;49.75;101395.69;5010696;28;20136;-83
2024/01/21 08:22:48;;;;;;;5.95;3.00;;;;;;;0.68;49.41;101398.44;5061546;28;20036;-82
2024/01/21 08:25:16;;;;;;;5.38;3.25;;;;;;;0.69;49.38;101403.66;5051649;28;20399;-83
2024/01/21 08:27:43;;;;;;;2.80;2.60;;;;;;;0.86;46.64;101393.19;5026371;28;20068;-83
2024/01/21 08:30:10;;;;;;;6.63;2.22;;;;;;;1.11;45.66;101384.81;5044279;28;20064;-83
2024/01/21 08:32:39;;;;;;;1.98;1.27;;;;;;;1.38;43.74;101376.44;5039134;28;20789;-82
2024/01/21 08:35:06;;;;;;;2.10;1.38;;;;;;;1.53;43.05;101358.97;5061739;28;20087;-84
2024/01/21 08:37:34;;;;;;;8.85;2.53;;;;;;;1.62;42.49;101364.50;5055996;28;20044;-83
2024/01/21 08:40:04;;;;;;;2.78;1.83;;;;;;;1.80;43.08;101363.47;5047399;28;20033;-82
2024/01/21 08:42:30;;;;;;;5.50;1.55;;;;;;;1.84;41.95;101330.88;5033179;28;20075;-82
2024/01/21 08:44:59;;;;;;;6.25;2.10;;;;;;;1.94;42.33;101330.41;5032508;28;20055;-82
2024/01/21 08:47:26;;;;;;;3.70;2.20;;;;;;;1.94;41.66;101313.22;5028014;28;20090;-83
2024/01/21 08:49:55;;;;;;;4.18;2.00;;;;;;;1.95;41.56;101324.41;5030863;28;20048;-82
2024/01/21 08:52:26;;;;;;;3.47;1.92;;;;;;;2.00;41.58;101324.59;5055771;28;20048;-84
2024/01/21 08:54:54;;;;;;;2.33;1.67;;;;;;;2.02;41.67;101315.19;5056973;28;20048;-82
2024/01/21 08:57:21;;;;;;;5.22;2.15;;;;;;;2.04;42.05;101293.75;5028403;28;20432;-82
2024/01/21 08:59:51;;;;;;;3.35;2.33;;;;;;;2.03;42.07;101302.34;5036634;28;20354;-83
2024/01/21 09:02:19;;;;;;;3.58;2.58;;;;;;;2.06;42.29;101336.03;5027758;28;20044;-83
2024/01/21 09:04:48;;;;;;;3.90;2.00;;;;;;;2.04;42.76;101317.00;5053834;28;20407;-83
2024/01/21 09:07:18;;;;;;;4.00;2.20;;;;;;;2.10;42.70;101337.91;5032843;28;20524;-84
2024/01/21 09:09:44;;;;;;;4.22;1.80;;;;;;;2.01;42.46;101334.09;5047981;28;20060;-84
2024/01/21 09:12:15;;;;;;;5.05;2.33;;;;;;;2.06;42.92;101336.03;5059757;28;20534;-83
2024/01/21 09:14:42;;;;;;;9.93;2.45;;;;;;;2.07;42.30;101342.06;5057800;28;20053;-82
2024/01/21 09:17:09;;;;;;;2.42;1.92;;;;;;;2.02;43.21;101331.59;5058432;28;20569;-83
2024/01/21 09:19:38;;;;;;;5.60;3.85;;;;;;;2.02;43.16;101341.91;5043865;28;20078;-83
2024/01/21 09:22:10;;;;;;;2.53;2.17;;;;;;;2.07;42.85;101345.53;5045042;28;20067;-82
2024/01/21 09:24:38;;;;;;;3.00;2.03;;;;;;;2.07;42.80;101342.06;5017538;28;20088;-83
2024/01/21 09:27:05;;;;;;;3.10;1.83;;;;;;;2.10;42.78;101344.75;5029763;28;20479;-84
2024/01/21 09:29:32;;;;;;;2.13;1.85;;;;;;;2.15;42.81;101354.44;5044189;28;20551;-83
2024/01/21 09:32:00;;;;;;;4.50;2.05;;;;;;;2.17;42.55;101367.41;5042376;28;20056;-84
2024/01/21 09:34:32;;;;;;;3.25;2.63;;;;;;;2.26;42.42;101365.16;5016329;28;20546;-84
2024/01/21 09:37:07;;;;;;;2.33;1.50;;;;;;;2.33;42.17;101339.56;5017337;28;20044;-81
2024/01/21 09:39:34;;;;;;;4.55;2.10;;;;;;;2.36;42.47;101313.81;5044355;28;20040;-82
2024/01/21 09:42:01;;;;;;;3.08;1.85;;;;;;;2.34;42.18;101290.50;5021846;28;20072;-82
2024/01/21 09:44:41;;;;;;;3.65;2.25;;;;;;;2.34;41.82;101331.84;5042394;28;20083;-82
2024/01/21 09:47:15;;;;;;;2.22;1.90;;;;;;;2.43;42.53;101341.66;5013423;28;20140;-80
2024/01/21 09:49:42;;;;;;;2.05;1.85;;;;;;;2.39;42.98;101335.47;5055513;28;20081;-84
2024/01/21 09:52:09;;;;;;;2.97;1.92;;;;;;;2.46;42.92;101365.00;5023163;28;20068;-82
2024/01/21 09:54:40;;;;;;;3.13;1.92;;;;;;;2.47;42.99;101354.72;5049755;28;20085;-83
2024/01/21 09:57:08;;;;;;;3.75;1.80;;;;;;;2.44;43.41;101361.50;5057102;28;20041;-83
2024/01/21 09:59:35;;;;;;;2.78;1.70;;;;;;;2.45;43.32;101371.00;5045936;28;20044;-83
2024/01/21 10:02:01;;;;;;;6.20;3.03;;;;;;;2.44;43.80;101380.47;5029728;28;20451;-83
2024/01/21 10:04:30;;;;;;;4.00;2.05;;;;;;;2.49;43.81;101383.22;5032174;28;20041;-83
2024/01/21 10:06:58;;;;;;;4.22;2.50;;;;;;;2.41;44.07;101385.53;5039945;28;20045;-81
2024/01/21 10:09:24;;;;;;;3.58;2.15;;;;;;;2.48;44.70;101399.56;5030757;28;20044;-82
2024/01/21 10:11:56;;;;;;;4.97;2.83;;;;;;;2.48;44.58;101410.75;5029023;28;20048;-82
2024/01/21 10:14:28;;;;;;;7.55;2.63;;;;;;;2.51;44.34;101402.22;5034925;28;20750;-82
2024/01/21 10:16:56;;;;;;;2.92;2.10;;;;;;;2.51;44.34;101402.22;5038112;28;20061;-83
2024/01/21 10:19:30;;;;;;;8.43;2.38;;;;;;;2.58;44.50;101390.41;5055902;28;20129;-82
2024/01/21 10:22:14;;;;;;;4.43;1.85;;;;;;;2.56;44.39;101392.94;5033260;28;20160;-83
2024/01/21 10:24:43;;;;;;;6.20;2.05;;;;;;;2.60;44.43;101386.19;5009642;28;20171;-84
2024/01/21 10:27:11;;;;;;;2.83;2.58;;;;;;;2.67;44.47;101388.13;5033747;28;20072;-82
2024/01/21 10:29:43;;;;;;;3.50;2.20;;;;;;;2.67;43.47;101389.84;5031642;28;20127;-83
2024/01/21 10:32:15;;;;;;;4.35;1.90;;;;;;;2.75;43.52;101406.50;5029727;28;20342;-85
2024/01/21 10:34:46;;;;;;;2.58;2.13;;;;;;;2.80;43.31;101390.34;5032215;28;20053;-81
2024/01/21 10:37:16;;;;;;;8.27;2.25;;;;;;;2.82;42.87;101377.47;5019815;28;20045;-82
2024/01/21 10:39:49;;;;;;;10.95;3.15;;;;;;;2.86;42.40;101371.56;5032957;28;20044;-83
2024/01/21 10:42:17;;;;;;;3.97;2.50;;;;;;;2.94;42.07;101356.31;5029071;28;20046;-83
2024/01/21 10:44:47;;;;;;;5.90;2.67;;;;;;;2.97;42.11;101344.38;5011592;28;20139;-83
2024/01/21 10:47:18;;;;;;;5.15;4.28;;;;;;;2.94;41.88;101326.16;5043750;28;20041;-83
2024/01/21 10:49:50;;;;;;;3.25;2.47;;;;;;;3.02;42.09;101320.38;5030418;28;20056;-83
2024/01/21 10:52:19;;;;;;;4.60;2.75;;;;;;;3.11;42.56;101346.53;5031525;28;20048;-84
2024/01/21 10:54:48;;;;;;;4.43;2.55;;;;;;;3.11;42.22;101338.75;5043800;28;20041;-82
2024/01/21 10:57:20;;;;;;;4.70;2.70;;;;;;;3.07;42.66;101321.41;5018725;28;20802;-82
2024/01/21 10:59:47;;;;;;;4.40;2.97;;;;;;;3.10;42.30;101324.06;5046252;28;20076;-84
2024/01/21 11:02:14;;;;;;;5.47;3.20;;;;;;;3.05;42.86;101321.34;5051969;28;20124;-82
2024/01/21 11:04:42;;;;;;;4.10;3.10;;;;;;;3.12;43.14;101300.00;5026952;28;20076;-83
2024/01/21 11:07:13;;;;;;;4.63;2.90;;;;;;;3.04;43.59;101292.81;5012365;28;20566;-84
2024/01/21 11:09:42;;;;;;;;;;;;;;;3.07;43.22;101298.13;5018239;28;20041;-83
2024/01/21 11:12:10;;;;;;;6.40;3.88;;;;;;;3.06;43.29;101294.63;5019004;28;19979;-83
2024/01/21 11:14:40;;;;;;;5.22;3.15;;;;;;;3.12;43.14;101302.59;5037218;28;20048;-84
2024/01/21 11:17:12;;;;;;;4.10;3.65;;;;;;;3.23;43.29;101308.09;5006139;28;20041;-83
2024/01/21 11:19:56;;;;;;;5.03;3.83;;;;;;;3.32;43.29;101294.56;5010968;28;20488;-83
2024/01/21 11:22:26;;;;;;;6.23;3.27;;;;;;;3.14;43.04;101287.13;5038981;28;20131;-84
2024/01/21 11:24:56;;;;;;;6.78;5.00;;;;;;;3.27;43.21;101322.03;5017561;28;20136;-84
2024/01/21 11:27:32;;;;;;;4.38;3.38;;;;;;;3.29;43.09;101305.72;5030094;28;20093;-85
2024/01/21 11:29:59;;;;;;;8.93;4.70;;;;;;;3.34;42.95;101326.56;5042958;28;20462;-83
2024/01/21 11:32:28;;;;;;;5.28;2.90;;;;;;;3.37;43.01;101323.19;5035603;28;20526;-84
2024/01/21 11:34:57;;;;;;;4.68;4.00;;;;;;;3.36;42.70;101319.72;5048523;28;20092;-85